sensor_id;sensor_type;location;lat;lon;timestamp;pressure;altitude;pressure_sealevel;temperature
70969;BMP280;58630;43.022;25.100;2022-10-16T00:01:53;100183.78;;;16.89
70969;BMP280;58630;43.022;25.100;2022-10-16T00:04:18;100177.25;;;16.87
70969;BMP280;58630;43.022;25.100;2022-10-16T00:06:43;100182.00;;;16.85
70969;BMP280;58630;43.022;25.100;2022-10-16T00:09:09;100182.00;;;16.85
70969;BMP280;58630;43.022;25.100;2022-10-16T00:11:37;100192.75;;;16.83
70969;BMP280;58630;43.022;25.100;2022-10-16T00:14:04;100191.50;;;16.81
70969;BMP280;58630;43.022;25.100;2022-10-16T00:16:30;100191.50;;;16.81
70969;BMP280;58630;43.022;25.100;2022-10-16T00:18:56;100198.84;;;16.79
70969;BMP280;58630;43.022;25.100;2022-10-16T00:21:23;100206.44;;;16.81
70969;BMP280;58630;43.022;25.100;2022-10-16T00:23:55;100205.44;;;16.77
70969;BMP280;58630;43.022;25.100;2022-10-16T00:26:22;100209.94;;;16.76
70969;BMP280;58630;43.022;25.100;2022-10-16T00:28:48;100210.47;;;16.73
70969;BMP280;58630;43.022;25.100;2022-10-16T00:31:14;100210.47;;;16.73
70969;BMP280;58630;43.022;25.100;2022-10-16T00:33:39;100218.91;;;16.70
70969;BMP280;58630;43.022;25.100;2022-10-16T00:36:05;100215.22;;;16.71
70969;BMP280;58630;43.022;25.100;2022-10-16T00:38:31;100215.47;;;16.70
70969;BMP280;58630;43.022;25.100;2022-10-16T00:40:56;100219.19;;;16.69
70969;BMP280;58630;43.022;25.100;2022-10-16T00:43:32;100221.03;;;16.68
70969;BMP280;58630;43.022;25.100;2022-10-16T00:45:59;100228.41;;;16.66
70969;BMP280;58630;43.022;25.100;2022-10-16T00:48:25;100226.81;;;16.65
70969;BMP280;58630;43.022;25.100;2022-10-16T00:50:50;100229.44;;;16.65
70969;BMP280;58630;43.022;25.100;2022-10-16T00:53:16;100228.19;;;16.63
70969;BMP280;58630;43.022;25.100;2022-10-16T00:55:42;100232.63;;;16.62
70969;BMP280;58630;43.022;25.100;2022-10-16T00:58:08;100232.13;;;16.60
70969;BMP280;58630;43.022;25.100;2022-10-16T01:00:33;100235.78;;;16.59
70969;BMP280;58630;43.022;25.100;2022-10-16T01:02:59;100236.59;;;16.60
70969;BMP280;58630;43.022;25.100;2022-10-16T01:05:42;100234.78;;;16.55
70969;BMP280;58630;43.022;25.100;2022-10-16T01:08:27;100240.84;;;16.56
70969;BMP280;58630;43.022;25.100;2022-10-16T01:10:59;100242.16;;;16.53
70969;BMP280;58630;43.022;25.100;2022-10-16T01:13:35;100246.66;;;16.53
70969;BMP280;58630;43.022;25.100;2022-10-16T01:16:05;100239.81;;;16.52
70969;BMP280;58630;43.022;25.100;2022-10-16T01:18:38;100237.47;;;16.50
70969;BMP280;58630;43.022;25.100;2022-10-16T01:21:05;100241.94;;;16.50
70969;BMP280;58630;43.022;25.100;2022-10-16T01:29:24;100234.09;;;16.45
70969;BMP280;58630;43.022;25.100;2022-10-16T01:31:40;100233.31;;;16.44
70969;BMP280;58630;43.022;25.100;2022-10-16T01:34:10;100242.53;;;16.42
70969;BMP280;58630;43.022;25.100;2022-10-16T01:36:42;100244.09;;;16.43
70969;BMP280;58630;43.022;25.100;2022-10-16T01:39:10;100249.63;;;16.41
70969;BMP280;58630;43.022;25.100;2022-10-16T01:41:41;100252.50;;;16.40
70969;BMP280;58630;43.022;25.100;2022-10-16T01:44:10;100249.38;;;16.38
70969;BMP280;58630;43.022;25.100;2022-10-16T01:46:37;100254.63;;;16.38
70969;BMP280;58630;43.022;25.100;2022-10-16T01:49:04;100263.59;;;16.37
70969;BMP280;58630;43.022;25.100;2022-10-16T01:51:30;100254.91;;;16.36
70969;BMP280;58630;43.022;25.100;2022-10-16T01:53:57;100264.88;;;16.34
70969;BMP280;58630;43.022;25.100;2022-10-16T01:56:23;100251.28;;;16.32
70969;BMP280;58630;43.022;25.100;2022-10-16T01:58:50;100254.94;;;16.31
70969;BMP280;58630;43.022;25.100;2022-10-16T02:01:17;100253.38;;;16.30
70969;BMP280;58630;43.022;25.100;2022-10-16T02:03:43;100250.22;;;16.28
70969;BMP280;58630;43.022;25.100;2022-10-16T02:06:09;100253.94;;;16.27
70969;BMP280;58630;43.022;25.100;2022-10-16T02:08:35;100256.03;;;16.25
70969;BMP280;58630;43.022;25.100;2022-10-16T02:11:01;100265.75;;;16.25
70969;BMP280;58630;43.022;25.100;2022-10-16T02:15:52;100260.28;;;16.22
70969;BMP280;58630;43.022;25.100;2022-10-16T02:18:17;100261.84;;;16.23
70969;BMP280;58630;43.022;25.100;2022-10-16T02:20:46;100257.66;;;16.22
70969;BMP280;58630;43.022;25.100;2022-10-16T02:23:15;100266.59;;;16.21
70969;BMP280;58630;43.022;25.100;2022-10-16T02:25:44;100271.03;;;16.20
70969;BMP280;58630;43.022;25.100;2022-10-16T02:28:22;100264.53;;;16.18
70969;BMP280;58630;43.022;25.100;2022-10-16T02:30:54;100268.19;;;16.17
70969;BMP280;58630;43.022;25.100;2022-10-16T02:33:21;100275.53;;;16.15
70969;BMP280;58630;43.022;25.100;2022-10-16T02:35:47;100276.59;;;16.14
70969;BMP280;58630;43.022;25.100;2022-10-16T02:38:14;100275.78;;;16.13
70969;BMP280;58630;43.022;25.100;2022-10-16T02:40:39;100276.88;;;16.12
70969;BMP280;58630;43.022;25.100;2022-10-16T02:43:05;100283.16;;;16.11
70969;BMP280;58630;43.022;25.100;2022-10-16T02:45:30;100285.00;;;16.11
70969;BMP280;58630;43.022;25.100;2022-10-16T02:47:56;100285.53;;;16.08
70969;BMP280;58630;43.022;25.100;2022-10-16T02:50:21;100282.13;;;16.07
70969;BMP280;58630;43.022;25.100;2022-10-16T02:52:47;100292.63;;;16.07
70969;BMP280;58630;43.022;25.100;2022-10-16T02:55:12;100285.81;;;16.06
70969;BMP280;58630;43.022;25.100;2022-10-16T02:57:37;100283.19;;;16.06
70969;BMP280;58630;43.022;25.100;2022-10-16T03:00:05;100289.75;;;16.04
70969;BMP280;58630;43.022;25.100;2022-10-16T03:02:30;100292.38;;;16.04
70969;BMP280;58630;43.022;25.100;2022-10-16T03:04:56;100288.19;;;16.03
70969;BMP280;58630;43.022;25.100;2022-10-16T03:07:21;100288.97;;;16.03
70969;BMP280;58630;43.022;25.100;2022-10-16T03:09:46;100298.19;;;16.01
70969;BMP280;58630;43.022;25.100;2022-10-16T03:12:12;100289.00;;;15.98
70969;BMP280;58630;43.022;25.100;2022-10-16T03:14:37;100296.88;;;15.98
70969;BMP280;58630;43.022;25.100;2022-10-16T03:17:02;100297.97;;;15.97
70969;BMP280;58630;43.022;25.100;2022-10-16T03:19:27;100298.19;;;15.96
70969;BMP280;58630;43.022;25.100;2022-10-16T03:21:53;100305.53;;;15.94
70969;BMP280;58630;43.022;25.100;2022-10-16T03:24:18;100303.97;;;15.93
70969;BMP280;58630;43.022;25.100;2022-10-16T03:26:43;100307.66;;;15.92
70969;BMP280;58630;43.022;25.100;2022-10-16T03:29:08;100312.91;;;15.92
70969;BMP280;58630;43.022;25.100;2022-10-16T03:31:34;100308.72;;;15.91
70969;BMP280;58630;43.022;25.100;2022-10-16T03:33:59;100311.34;;;15.91
70969;BMP280;58630;43.022;25.100;2022-10-16T03:36:24;100309.00;;;15.89
70969;BMP280;58630;43.022;25.100;2022-10-16T03:38:50;100311.88;;;15.88
70969;BMP280;58630;43.022;25.100;2022-10-16T03:41:15;100307.72;;;15.87
70969;BMP280;58630;43.022;25.100;2022-10-16T03:43:40;100311.63;;;15.84
70969;BMP280;58630;43.022;25.100;2022-10-16T03:46:05;100316.09;;;15.84
70969;BMP280;58630;43.022;25.100;2022-10-16T03:48:31;100321.34;;;15.84
70969;BMP280;58630;43.022;25.100;2022-10-16T03:50:57;100317.91;;;15.83
70969;BMP280;58630;43.022;25.100;2022-10-16T03:53:22;100315.56;;;15.82
70969;BMP280;58630;43.022;25.100;2022-10-16T03:55:47;100314.81;;;15.81
70969;BMP280;58630;43.022;25.100;2022-10-16T03:58:13;100317.69;;;15.80
70969;BMP280;58630;43.022;25.100;2022-10-16T04:00:45;100309.84;;;15.80
70969;BMP280;58630;43.022;25.100;2022-10-16T04:03:10;100313.50;;;15.79
70969;BMP280;58630;43.022;25.100;2022-10-16T04:05:36;100316.91;;;15.79
70969;BMP280;58630;43.022;25.100;2022-10-16T04:08:01;100323.47;;;15.77
70969;BMP280;58630;43.022;25.100;2022-10-16T04:10:26;100318.50;;;15.75
70969;BMP280;58630;43.022;25.100;2022-10-16T04:12:52;100315.38;;;15.73
70969;BMP280;58630;43.022;25.100;2022-10-16T04:15:19;100319.03;;;15.72
70969;BMP280;58630;43.022;25.100;2022-10-16T04:17:44;100320.84;;;15.72
70969;BMP280;58630;43.022;25.100;2022-10-16T04:20:10;100322.72;;;15.71
70969;BMP280;58630;43.022;25.100;2022-10-16T04:22:35;100320.63;;;15.68
70969;BMP280;58630;43.022;25.100;2022-10-16T04:25:00;100324.03;;;15.69
70969;BMP280;58630;43.022;25.100;2022-10-16T04:27:26;100328.75;;;15.67
70969;BMP280;58630;43.022;25.100;2022-10-16T04:29:51;100327.97;;;15.66
70969;BMP280;58630;43.022;25.100;2022-10-16T04:32:16;100326.41;;;15.65
70969;BMP280;58630;43.022;25.100;2022-10-16T04:34:41;100339.22;;;15.62
70969;BMP280;58630;43.022;25.100;2022-10-16T04:37:07;100336.63;;;15.62
70969;BMP280;58630;43.022;25.100;2022-10-16T04:39:32;100348.66;;;15.63
70969;BMP280;58630;43.022;25.100;2022-10-16T04:41:57;100345.28;;;15.63
70969;BMP280;58630;43.022;25.100;2022-10-16T04:44:22;100348.13;;;15.61
70969;BMP280;58630;43.022;25.100;2022-10-16T04:46:50;100350.75;;;15.61
70969;BMP280;58630;43.022;25.100;2022-10-16T04:49:15;100355.25;;;15.61
70969;BMP280;58630;43.022;25.100;2022-10-16T04:51:40;100357.34;;;15.59
70969;BMP280;58630;43.022;25.100;2022-10-16T04:54:06;100348.72;;;15.58
70969;BMP280;58630;43.022;25.100;2022-10-16T04:56:31;100347.91;;;15.58
70969;BMP280;58630;43.022;25.100;2022-10-16T04:58:56;100356.03;;;15.56
70969;BMP280;58630;43.022;25.100;2022-10-16T05:01:21;100349.25;;;15.55
70969;BMP280;58630;43.022;25.100;2022-10-16T05:03:47;100346.09;;;15.53
70969;BMP280;58630;43.022;25.100;2022-10-16T05:06:12;100357.34;;;15.54
70969;BMP280;58630;43.022;25.100;2022-10-16T05:08:37;100357.34;;;15.54
70969;BMP280;58630;43.022;25.100;2022-10-16T05:11:02;100359.97;;;15.54
70969;BMP280;58630;43.022;25.100;2022-10-16T05:13:28;100363.13;;;15.51
70969;BMP280;58630;43.022;25.100;2022-10-16T05:15:53;100365.72;;;15.51
70969;BMP280;58630;43.022;25.100;2022-10-16T05:18:18;100372.03;;;15.50
70969;BMP280;58630;43.022;25.100;2022-10-16T05:20:44;100383.03;;;15.52
70969;BMP280;58630;43.022;25.100;2022-10-16T05:23:09;100374.13;;;15.48
70969;BMP280;58630;43.022;25.100;2022-10-16T05:25:37;100371.78;;;15.46
70969;BMP280;58630;43.022;25.100;2022-10-16T05:28:03;100373.34;;;15.47
70969;BMP280;58630;43.022;25.100;2022-10-16T05:30:28;100367.06;;;15.48
70969;BMP280;58630;43.022;25.100;2022-10-16T05:32:53;100379.38;;;15.48
70969;BMP280;58630;43.022;25.100;2022-10-16T05:35:19;100388.53;;;15.45
70969;BMP280;58630;43.022;25.100;2022-10-16T05:37:44;100395.34;;;15.46
70969;BMP280;58630;43.022;25.100;2022-10-16T05:40:10;100393.78;;;15.45
70969;BMP280;58630;43.022;25.100;2022-10-16T05:42:37;100401.38;;;15.47
70969;BMP280;58630;43.022;25.100;2022-10-16T05:45:02;100403.22;;;15.46
70969;BMP280;58630;43.022;25.100;2022-10-16T05:47:28;100406.88;;;15.45
70969;BMP280;58630;43.022;25.100;2022-10-16T05:49:53;100398.75;;;15.47
70969;BMP280;58630;43.022;25.100;2022-10-16T05:52:18;100403.22;;;15.46
70969;BMP280;58630;43.022;25.100;2022-10-16T05:54:44;100409.22;;;15.47
70969;BMP280;58630;43.022;25.100;2022-10-16T05:57:09;100413.44;;;15.48
70969;BMP280;58630;43.022;25.100;2022-10-16T05:59:34;100415.28;;;15.47
70969;BMP280;58630;43.022;25.100;2022-10-16T06:02:00;100431.00;;;15.47
70969;BMP280;58630;43.022;25.100;2022-10-16T06:04:25;100423.13;;;15.47
70969;BMP280;58630;43.022;25.100;2022-10-16T06:06:50;100429.94;;;15.48
70969;BMP280;58630;43.022;25.100;2022-10-16T06:09:15;100425.22;;;15.50
70969;BMP280;58630;43.022;25.100;2022-10-16T06:11:41;100436.22;;;15.47
70969;BMP280;58630;43.022;25.100;2022-10-16T06:14:07;100436.22;;;15.47
70969;BMP280;58630;43.022;25.100;2022-10-16T06:16:36;100435.19;;;15.48
70969;BMP280;58630;43.022;25.100;2022-10-16T06:19:02;100439.88;;;15.51
70969;BMP280;58630;43.022;25.100;2022-10-16T06:21:29;100441.69;;;15.51
70969;BMP280;58630;43.022;25.100;2022-10-16T06:23:54;100443.03;;;15.53
70969;BMP280;58630;43.022;25.100;2022-10-16T06:26:21;100444.09;;;15.52
70969;BMP280;58630;43.022;25.100;2022-10-16T06:28:47;100455.09;;;15.54
70969;BMP280;58630;43.022;25.100;2022-10-16T06:31:13;100460.03;;;15.56
70969;BMP280;58630;43.022;25.100;2022-10-16T06:33:38;100461.91;;;15.55
70969;BMP280;58630;43.022;25.100;2022-10-16T06:36:11;100462.41;;;15.57
70969;BMP280;58630;43.022;25.100;2022-10-16T06:38:36;100457.94;;;15.58
70969;BMP280;58630;43.022;25.100;2022-10-16T06:41:02;100465.53;;;15.59
70969;BMP280;58630;43.022;25.100;2022-10-16T06:43:28;100468.97;;;15.60
70969;BMP280;58630;43.022;25.100;2022-10-16T06:45:57;100470.53;;;15.61
70969;BMP280;58630;43.022;25.100;2022-10-16T06:48:22;100476.53;;;15.61
70969;BMP280;58630;43.022;25.100;2022-10-16T06:50:57;100475.78;;;15.61
70969;BMP280;58630;43.022;25.100;2022-10-16T06:53:23;100474.72;;;15.62
70969;BMP280;58630;43.022;25.100;2022-10-16T06:55:49;100478.09;;;15.62
70969;BMP280;58630;43.022;25.100;2022-10-16T06:58:14;100478.09;;;15.62
70969;BMP280;58630;43.022;25.100;2022-10-16T07:00:39;100473.91;;;15.61
70969;BMP280;58630;43.022;25.100;2022-10-16T07:03:04;100472.84;;;15.62
70969;BMP280;58630;43.022;25.100;2022-10-16T07:05:30;100478.63;;;15.59
70969;BMP280;58630;43.022;25.100;2022-10-16T07:07:55;100480.22;;;15.60
70969;BMP280;58630;43.022;25.100;2022-10-16T07:10:20;100473.91;;;15.61
70969;BMP280;58630;43.022;25.100;2022-10-16T07:12:49;100479.13;;;15.61
70969;BMP280;58630;43.022;25.100;2022-10-16T07:15:14;100484.69;;;15.60
70969;BMP280;58630;43.022;25.100;2022-10-16T07:17:39;100487.00;;;15.61
70969;BMP280;58630;43.022;25.100;2022-10-16T07:20:04;100476.56;;;15.56
70969;BMP280;58630;43.022;25.100;2022-10-16T07:22:30;100484.94;;;15.58
70969;BMP280;58630;43.022;25.100;2022-10-16T07:24:55;100484.69;;;15.60
70969;BMP280;58630;43.022;25.100;2022-10-16T07:27:20;100482.84;;;15.60
70969;BMP280;58630;43.022;25.100;2022-10-16T07:29:48;100478.41;;;15.61
70969;BMP280;58630;43.022;25.100;2022-10-16T07:32:14;100484.38;;;15.61
70969;BMP280;58630;43.022;25.100;2022-10-16T07:34:39;100480.47;;;15.59
70969;BMP280;58630;43.022;25.100;2022-10-16T07:37:04;100481.81;;;15.56
70969;BMP280;58630;43.022;25.100;2022-10-16T07:39:30;100482.88;;;15.55
70969;BMP280;58630;43.022;25.100;2022-10-16T07:41:55;100484.69;;;15.55
70969;BMP280;58630;43.022;25.100;2022-10-16T07:44:20;100479.72;;;15.53
70969;BMP280;58630;43.022;25.100;2022-10-16T07:46:46;100470.81;;;15.54
70969;BMP280;58630;43.022;25.100;2022-10-16T07:49:11;100472.38;;;15.50
70969;BMP280;58630;43.022;25.100;2022-10-16T07:51:36;100480.22;;;15.50
70969;BMP280;58630;43.022;25.100;2022-10-16T07:54:03;100481.53;;;15.48
70969;BMP280;58630;43.022;25.100;2022-10-16T07:56:30;100475.53;;;15.47
70969;BMP280;58630;43.022;25.100;2022-10-16T07:58:55;100471.31;;;15.46
70969;BMP280;58630;43.022;25.100;2022-10-16T08:01:21;100478.69;;;15.44
70969;BMP280;58630;43.022;25.100;2022-10-16T08:03:51;100480.22;;;15.45
70969;BMP280;58630;43.022;25.100;2022-10-16T08:06:17;100480.22;;;15.45
70969;BMP280;58630;43.022;25.100;2022-10-16T08:08:43;100486.00;;;15.47
70969;BMP280;58630;43.022;25.100;2022-10-16T08:11:08;100474.97;;;15.45
70969;BMP280;58630;43.022;25.100;2022-10-16T08:13:34;100479.44;;;15.45
70969;BMP280;58630;43.022;25.100;2022-10-16T08:15:59;100477.59;;;15.45
70969;BMP280;58630;43.022;25.100;2022-10-16T08:18:25;100473.94;;;15.46
70969;BMP280;58630;43.022;25.100;2022-10-16T08:20:57;100469.47;;;15.47
70969;BMP280;58630;43.022;25.100;2022-10-16T08:23:23;100467.66;;;15.47
70969;BMP280;58630;43.022;25.100;2022-10-16T08:25:50;100469.25;;;15.48
70969;BMP280;58630;43.022;25.100;2022-10-16T08:28:16;100465.56;;;15.49
70969;BMP280;58630;43.022;25.100;2022-10-16T08:30:41;100471.59;;;15.50
70969;BMP280;58630;43.022;25.100;2022-10-16T08:33:07;100468.19;;;15.49
70969;BMP280;58630;43.022;25.100;2022-10-16T08:35:33;100472.38;;;15.50
70969;BMP280;58630;43.022;25.100;2022-10-16T08:37:58;100470.28;;;15.52
70969;BMP280;58630;43.022;25.100;2022-10-16T08:40:28;100458.22;;;15.51
70969;BMP280;58630;43.022;25.100;2022-10-16T08:50:37;100456.13;;;15.53
70969;BMP280;58630;43.022;25.100;2022-10-16T08:53:03;100461.38;;;15.53
70969;BMP280;58630;43.022;25.100;2022-10-16T08:55:46;100462.41;;;15.52
70969;BMP280;58630;43.022;25.100;2022-10-16T08:58:14;100467.66;;;15.52
70969;BMP280;58630;43.022;25.100;2022-10-16T09:00:40;100468.69;;;15.51
70969;BMP280;58630;43.022;25.100;2022-10-16T09:08:13;100466.84;;;15.52
70969;BMP280;58630;43.022;25.100;2022-10-16T09:13:28;100467.66;;;15.52
70969;BMP280;58630;43.022;25.100;2022-10-16T09:16:10;100463.19;;;15.53
70969;BMP280;58630;43.022;25.100;2022-10-16T09:18:39;100461.38;;;15.53
70969;BMP280;58630;43.022;25.100;2022-10-16T09:21:19;100467.38;;;15.54
70969;BMP280;58630;43.022;25.100;2022-10-16T09:23:46;100467.16;;;15.55
70969;BMP280;58630;43.022;25.100;2022-10-16T09:26:13;100458.47;;;15.55
70969;BMP280;58630;43.022;25.100;2022-10-16T09:28:39;100452.97;;;15.56
70969;BMP280;58630;43.022;25.100;2022-10-16T09:31:04;100453.75;;;15.57
70969;BMP280;58630;43.022;25.100;2022-10-16T09:33:33;100458.75;;;15.58
70969;BMP280;58630;43.022;25.100;2022-10-16T09:35:58;100453.50;;;15.58
70969;BMP280;58630;43.022;25.100;2022-10-16T09:38:31;100453.25;;;15.60
70969;BMP280;58630;43.022;25.100;2022-10-16T09:40:57;100440.16;;;15.60
70969;BMP280;58630;43.022;25.100;2022-10-16T09:43:34;100435.69;;;15.60
70969;BMP280;58630;43.022;25.100;2022-10-16T09:46:01;100443.25;;;15.62
70969;BMP280;58630;43.022;25.100;2022-10-16T09:48:30;100436.19;;;15.62
70969;BMP280;58630;43.022;25.100;2022-10-16T09:50:57;100432.50;;;15.63
70969;BMP280;58630;43.022;25.100;2022-10-16T09:53:23;100424.66;;;15.63
70969;BMP280;58630;43.022;25.100;2022-10-16T09:55:49;100423.59;;;15.64
70969;BMP280;58630;43.022;25.100;2022-10-16T09:58:15;100423.59;;;15.64
70969;BMP280;58630;43.022;25.100;2022-10-16T10:00:41;100419.16;;;15.64
70969;BMP280;58630;43.022;25.100;2022-10-16T10:03:09;100423.38;;;15.65
70969;BMP280;58630;43.022;25.100;2022-10-16T10:05:35;100418.88;;;15.66
70969;BMP280;58630;43.022;25.100;2022-10-16T10:08:03;100417.81;;;15.67
70969;BMP280;58630;43.022;25.100;2022-10-16T10:10:34;100411.53;;;15.68
70969;BMP280;58630;43.022;25.100;2022-10-16T10:13:00;100411.03;;;15.71
70969;BMP280;58630;43.022;25.100;2022-10-16T10:15:25;100408.41;;;15.71
70969;BMP280;58630;43.022;25.100;2022-10-16T10:17:53;100403.66;;;15.73
70969;BMP280;58630;43.022;25.100;2022-10-16T10:22:47;100401.56;;;15.75
70969;BMP280;58630;43.022;25.100;2022-10-16T10:35:18;100381.66;;;15.79
70969;BMP280;58630;43.022;25.100;2022-10-16T10:40:34;100381.09;;;15.82
70969;BMP280;58630;43.022;25.100;2022-10-16T10:43:06;100376.63;;;15.82
70969;BMP280;58630;43.022;25.100;2022-10-16T10:45:43;100376.38;;;15.84
70969;BMP280;58630;43.022;25.100;2022-10-16T11:10:26;100359.13;;;16.26
70969;BMP280;58630;43.022;25.100;2022-10-16T11:12:55;100361.19;;;16.29
70969;BMP280;58630;43.022;25.100;2022-10-16T11:15:25;100358.00;;;16.37
70969;BMP280;58630;43.022;25.100;2022-10-16T11:17:53;100360.81;;;16.45
70969;BMP280;58630;43.022;25.100;2022-10-16T11:20:22;100359.75;;;16.51
70969;BMP280;58630;43.022;25.100;2022-10-16T11:25:23;100357.78;;;16.67
70969;BMP280;58630;43.022;25.100;2022-10-16T11:30:23;100346.53;;;16.89
70969;BMP280;58630;43.022;25.100;2022-10-16T11:38:10;100350.19;;;17.63
70969;BMP280;58630;43.022;25.100;2022-10-16T11:40:38;100344.03;;;18.09
70969;BMP280;58630;43.022;25.100;2022-10-16T11:43:10;100349.84;;;18.56
70969;BMP280;58630;43.022;25.100;2022-10-16T11:45:41;100346.31;;;18.93
70969;BMP280;58630;43.022;25.100;2022-10-16T11:48:24;100350.75;;;19.24
70969;BMP280;58630;43.022;25.100;2022-10-16T11:50:54;100346.31;;;19.60
70969;BMP280;58630;43.022;25.100;2022-10-16T11:55:47;100339.66;;;20.19
70969;BMP280;58630;43.022;25.100;2022-10-16T12:00:42;100350.75;;;20.29
70969;BMP280;58630;43.022;25.100;2022-10-16T12:06:16;100341.34;;;20.15
70969;BMP280;58630;43.022;25.100;2022-10-16T12:08:45;100339.91;;;20.09
70969;BMP280;58630;43.022;25.100;2022-10-16T12:14:17;100346.03;;;19.96
70969;BMP280;58630;43.022;25.100;2022-10-16T12:16:53;100350.81;;;19.94
70969;BMP280;58630;43.022;25.100;2022-10-16T12:19:19;100341.38;;;20.02
70969;BMP280;58630;43.022;25.100;2022-10-16T12:21:45;100355.13;;;19.90
70969;BMP280;58630;43.022;25.100;2022-10-16T12:24:31;100344.53;;;20.04
70969;BMP280;58630;43.022;25.100;2022-10-16T12:26:57;100350.66;;;20.13
70969;BMP280;58630;43.022;25.100;2022-10-16T12:29:30;100354.31;;;20.25
70969;BMP280;58630;43.022;25.100;2022-10-16T12:31:56;100348.78;;;20.65
70969;BMP280;58630;43.022;25.100;2022-10-16T12:36:47;100358.50;;;21.25
70969;BMP280;58630;43.022;25.100;2022-10-16T12:39:22;100353.41;;;21.62
70969;BMP280;58630;43.022;25.100;2022-10-16T12:41:48;100348.88;;;21.96
70969;BMP280;58630;43.022;25.100;2022-10-16T12:44:25;100349.28;;;22.32
70969;BMP280;58630;43.022;25.100;2022-10-16T12:46:53;100345.72;;;22.74
70969;BMP280;58630;43.022;25.100;2022-10-16T12:49:23;100354.44;;;23.11
70969;BMP280;58630;43.022;25.100;2022-10-16T12:51:54;100356.44;;;23.55
70969;BMP280;58630;43.022;25.100;2022-10-16T12:54:20;100353.19;;;23.90
70969;BMP280;58630;43.022;25.100;2022-10-16T12:59:33;100343.88;;;24.40
70969;BMP280;58630;43.022;25.100;2022-10-16T13:07:31;100352.44;;;24.93
70969;BMP280;58630;43.022;25.100;2022-10-16T13:12:29;100360.59;;;25.12
70969;BMP280;58630;43.022;25.100;2022-10-16T13:15:01;100364.50;;;25.02
70969;BMP280;58630;43.022;25.100;2022-10-16T13:22:24;100365.09;;;25.35
70969;BMP280;58630;43.022;25.100;2022-10-16T13:27:30;100363.72;;;25.68
70969;BMP280;58630;43.022;25.100;2022-10-16T13:30:09;100359.94;;;25.96
70969;BMP280;58630;43.022;25.100;2022-10-16T13:32:35;100365.72;;;26.14
70969;BMP280;58630;43.022;25.100;2022-10-16T13:35:01;100364.69;;;26.33
70969;BMP280;58630;43.022;25.100;2022-10-16T13:37:26;100375.25;;;26.45
70969;BMP280;58630;43.022;25.100;2022-10-16T13:40:02;100372.91;;;26.59
70969;BMP280;58630;43.022;25.100;2022-10-16T13:42:27;100373.00;;;26.62
70969;BMP280;58630;43.022;25.100;2022-10-16T13:44:53;100374.63;;;26.67
70969;BMP280;58630;43.022;25.100;2022-10-16T13:49:44;100378.97;;;26.90
70969;BMP280;58630;43.022;25.100;2022-10-16T13:52:19;100379.13;;;26.97
70969;BMP280;58630;43.022;25.100;2022-10-16T13:54:45;100383.66;;;26.97
70969;BMP280;58630;43.022;25.100;2022-10-16T13:57:12;100386.84;;;27.02
70969;BMP280;58630;43.022;25.100;2022-10-16T13:59:38;100384.19;;;27.02
70969;BMP280;58630;43.022;25.100;2022-10-16T14:04:45;100380.13;;;27.08
70969;BMP280;58630;43.022;25.100;2022-10-16T14:07:13;100378.56;;;27.07
70969;BMP280;58630;43.022;25.100;2022-10-16T14:09:39;100382.91;;;26.96
70969;BMP280;58630;43.022;25.100;2022-10-16T14:12:09;100389.63;;;26.90
70969;BMP280;58630;43.022;25.100;2022-10-16T14:14:57;100386.13;;;26.86
70969;BMP280;58630;43.022;25.100;2022-10-16T14:17:24;100390.06;;;26.92
70969;BMP280;58630;43.022;25.100;2022-10-16T14:19:51;100401.69;;;26.84
70969;BMP280;58630;43.022;25.100;2022-10-16T14:22:39;100396.34;;;26.84
70969;BMP280;58630;43.022;25.100;2022-10-16T14:28:03;100394.06;;;26.83
70969;BMP280;58630;43.022;25.100;2022-10-16T14:30:28;100399.97;;;26.76
70969;BMP280;58630;43.022;25.100;2022-10-16T14:32:55;100399.13;;;26.72
70969;BMP280;58630;43.022;25.100;2022-10-16T14:35:22;100397.44;;;26.64
70969;BMP280;58630;43.022;25.100;2022-10-16T14:37:50;100397.94;;;26.70
70969;BMP280;58630;43.022;25.100;2022-10-16T14:40:16;100400.59;;;26.70
70969;BMP280;58630;43.022;25.100;2022-10-16T14:42:42;100405.69;;;26.60
70969;BMP280;58630;43.022;25.100;2022-10-16T14:45:08;100405.44;;;26.49
70969;BMP280;58630;43.022;25.100;2022-10-16T14:47:34;100412.06;;;26.40
70969;BMP280;58630;43.022;25.100;2022-10-16T14:50:04;100407.94;;;26.27
70969;BMP280;58630;43.022;25.100;2022-10-16T14:52:30;100423.31;;;26.18
70969;BMP280;58630;43.022;25.100;2022-10-16T14:54:55;100407.81;;;26.08
70969;BMP280;58630;43.022;25.100;2022-10-16T14:57:23;100418.53;;;25.96
70969;BMP280;58630;43.022;25.100;2022-10-16T14:59:49;100421.13;;;25.81
70969;BMP280;58630;43.022;25.100;2022-10-16T15:04:50;100417.59;;;25.50
70969;BMP280;58630;43.022;25.100;2022-10-16T15:07:15;100413.59;;;25.44
70969;BMP280;58630;43.022;25.100;2022-10-16T15:09:41;100422.84;;;25.34
70969;BMP280;58630;43.022;25.100;2022-10-16T15:12:06;100423.31;;;25.24
70969;BMP280;58630;43.022;25.100;2022-10-16T15:14:31;100419.22;;;25.15
70969;BMP280;58630;43.022;25.100;2022-10-16T15:16:57;100422.34;;;25.05
70969;BMP280;58630;43.022;25.100;2022-10-16T15:19:22;100432.31;;;24.96
70969;BMP280;58630;43.022;25.100;2022-10-16T15:21:47;100434.66;;;24.86
70969;BMP280;58630;43.022;25.100;2022-10-16T15:24:13;100434.59;;;24.74
70969;BMP280;58630;43.022;25.100;2022-10-16T15:26:39;100444.91;;;24.64
70969;BMP280;58630;43.022;25.100;2022-10-16T15:29:04;100438.47;;;24.53
70969;BMP280;58630;43.022;25.100;2022-10-16T15:31:30;100437.78;;;24.44
70969;BMP280;58630;43.022;25.100;2022-10-16T15:33:55;100446.16;;;24.34
70969;BMP280;58630;43.022;25.100;2022-10-16T15:36:30;100447.38;;;24.25
70969;BMP280;58630;43.022;25.100;2022-10-16T15:38:56;100440.22;;;24.17